createdAt,value
2023-03-15T00:00:17.512Z,59808.03
2023-03-15T00:02:47.697Z,59810.19
2023-03-15T00:05:16.209Z,59815.56
2023-03-15T00:07:44.608Z,59807.78
2023-03-15T00:10:13.313Z,59810.50
2023-03-15T00:12:42.661Z,59803.47
2023-03-15T00:15:14.327Z,59808.34
2023-03-15T00:17:44.879Z,59804.63
2023-03-15T00:20:15.912Z,59798.88
2023-03-15T00:22:44.282Z,59802.47
2023-03-15T00:25:12.883Z,59801.00
2023-03-15T00:27:41.286Z,59798.31
2023-03-15T00:30:11.103Z,59795.94
2023-03-15T00:32:39.627Z,59804.25
2023-03-15T00:35:08.692Z,59806.41
2023-03-15T00:37:38.482Z,59799.69
2023-03-15T00:40:08.748Z,59803.88
2023-03-15T00:42:37.155Z,59797.00
2023-03-15T00:45:06.552Z,59809.09
2023-03-15T00:47:34.949Z,59806.72
2023-03-15T00:50:03.359Z,59797.94
2023-03-15T00:52:36.916Z,59795.94
2023-03-15T00:55:07.254Z,59792.16
2023-03-15T00:57:35.976Z,59797.47
2023-03-15T01:00:08.758Z,59791.31
2023-03-15T01:02:38.443Z,59793.78
2023-03-15T01:05:07.749Z,59792.25
2023-03-15T01:07:36.492Z,59792.69
2023-03-15T01:10:08.301Z,59786.22
2023-03-15T01:12:36.798Z,59792.69
2023-03-15T01:15:09.123Z,59784.84
2023-03-15T01:17:37.519Z,59785.00
2023-03-15T01:20:07.719Z,59776.53
2023-03-15T01:22:36.111Z,59788.75
2023-03-15T01:25:06.622Z,59783.38
2023-03-15T01:27:35.044Z,59777.97
2023-03-15T01:30:03.528Z,59784.31
2023-03-15T01:32:31.986Z,59779.44
2023-03-15T01:35:00.406Z,59786.31
2023-03-15T01:37:28.875Z,59778.69
2023-03-15T01:39:57.266Z,59788.59
2023-03-15T01:42:27.004Z,59774.75
2023-03-15T01:44:59.895Z,59764.97
2023-03-15T01:47:29.159Z,59770.44
2023-03-15T01:50:04.100Z,59776.91
2023-03-15T01:52:36.914Z,59772.22
2023-03-15T01:55:11.239Z,59770.44
2023-03-15T01:57:42.820Z,59769.38
2023-03-15T02:00:13.565Z,59763.75
2023-03-15T02:02:48.128Z,59769.22
2023-03-15T02:05:21.629Z,59774.06
2023-03-15T02:07:50.955Z,59767.59
2023-03-15T02:10:24.577Z,59761.97
2023-03-15T02:12:57.204Z,59761.81
2023-03-15T02:15:25.622Z,59753.59
2023-03-15T02:17:54.025Z,59755.19
2023-03-15T02:20:32.175Z,59755.34
2023-03-15T02:23:03.303Z,59754.25
2023-03-15T02:25:40.688Z,59756.44
2023-03-15T02:28:12.979Z,59757.34
2023-03-15T02:30:42.056Z,59740.94
2023-03-15T02:33:16.452Z,59750.34
2023-03-15T02:35:44.701Z,59738.09
2023-03-15T02:38:13.044Z,59730.72
2023-03-15T02:40:41.821Z,59735.78
2023-03-15T02:43:15.561Z,59739.56
2023-03-15T02:45:44.244Z,59723.94
2023-03-15T02:48:13.314Z,59724.47
2023-03-15T02:50:41.729Z,59715.84
2023-03-15T02:53:12.290Z,59699.84
2023-03-15T02:55:40.850Z,59695.00
2023-03-15T02:58:09.235Z,59694.84
2023-03-15T03:00:39.461Z,59708.31
2023-03-15T03:03:08.958Z,59699.16
2023-03-15T03:05:37.361Z,59692.84
2023-03-15T03:08:06.311Z,59691.63
2023-03-15T03:10:34.681Z,59692.16
2023-03-15T03:13:03.089Z,59686.78
2023-03-15T03:15:31.526Z,59674.53
2023-03-15T03:18:01.274Z,59671.69
2023-03-15T03:20:30.002Z,59675.47
2023-03-15T03:22:58.455Z,59671.69
2023-03-15T03:25:27.385Z,59672.75
2023-03-15T03:27:57.255Z,59673.31
2023-03-15T03:30:26.131Z,59669.00
2023-03-15T03:32:54.631Z,59665.38
2023-03-15T03:35:24.464Z,59668.44
2023-03-15T03:37:54.181Z,59662.31
2023-03-15T03:40:22.578Z,59668.09
2023-03-15T03:42:50.950Z,59668.09
2023-03-15T03:45:19.408Z,59672.00
2023-03-15T03:47:48.024Z,59681.75
2023-03-15T03:50:16.661Z,59676.53
2023-03-15T03:52:46.442Z,59673.47
2023-03-15T03:55:15.078Z,59676.00
2023-03-15T03:57:43.895Z,59679.22
2023-03-15T04:00:15.343Z,59679.22
2023-03-15T04:02:44.240Z,59672.75
2023-03-15T04:05:13.317Z,59674.69
2023-03-15T04:07:42.481Z,59667.69
2023-03-15T04:10:14.694Z,59666.47
2023-03-15T04:12:44.227Z,59676.53
2023-03-15T04:15:13.611Z,59667.38
2023-03-15T04:17:42.023Z,59662.53
2023-03-15T04:20:13.005Z,59654.78
2023-03-15T04:22:41.424Z,59655.69
2023-03-15T04:25:10.166Z,59657.69
2023-03-15T04:27:39.956Z,59650.84
2023-03-15T04:30:09.466Z,59652.69
2023-03-15T04:32:37.872Z,59651.38
2023-03-15T04:35:06.971Z,59640.78
2023-03-15T04:37:35.366Z,59645.09
2023-03-15T04:40:07.092Z,59657.00
2023-03-15T04:42:35.498Z,59655.69
2023-03-15T04:45:06.174Z,59657.16
2023-03-15T04:47:34.553Z,59657.84
2023-03-15T04:50:02.981Z,59660.38
2023-03-15T04:52:31.359Z,59652.31
2023-03-15T04:54:59.783Z,59660.91
2023-03-15T04:57:28.191Z,59660.91
2023-03-15T04:59:57.096Z,59664.16
2023-03-15T05:02:26.866Z,59653.00
2023-03-15T05:04:55.289Z,59653.38
2023-03-15T05:07:23.726Z,59646.69
2023-03-15T05:09:52.219Z,59658.38
2023-03-15T05:12:20.698Z,59651.22
2023-03-15T05:14:49.109Z,59648.31
2023-03-15T05:17:17.725Z,59656.59
2023-03-15T05:19:47.507Z,59645.63
2023-03-15T05:22:15.894Z,59651.78
2023-03-15T05:24:44.584Z,59658.22
2023-03-15T05:27:13.711Z,59658.78
2023-03-15T05:29:42.120Z,59652.84
2023-03-15T05:32:10.899Z,59649.47
2023-03-15T05:34:39.313Z,59646.00
2023-03-15T05:37:09.433Z,59651.38
2023-03-15T05:39:37.820Z,59652.84
2023-03-15T05:42:07.167Z,59650.38
2023-03-15T05:44:35.581Z,59644.00
2023-03-15T05:47:04.094Z,59648.31
2023-03-15T05:49:32.512Z,59655.69
2023-03-15T05:52:01.035Z,59653.38
2023-03-15T05:54:30.824Z,59653.38
2023-03-15T05:56:59.210Z,59658.22
2023-03-15T05:59:27.634Z,59659.47
2023-03-15T06:01:56.050Z,59672.22
2023-03-15T06:04:24.893Z,59670.06
2023-03-15T06:06:53.986Z,59664.84
2023-03-15T06:09:22.415Z,59675.84
2023-03-15T06:11:52.341Z,59676.53
2023-03-15T06:14:20.755Z,59680.31
2023-03-15T06:16:49.229Z,59682.78
2023-03-15T06:19:17.725Z,59691.78
2023-03-15T06:21:46.132Z,59697.16
2023-03-15T06:24:14.831Z,59697.00
2023-03-15T06:26:43.264Z,59700.41
2023-03-15T06:29:13.054Z,59702.16
2023-03-15T06:31:41.465Z,59713.72
2023-03-15T06:34:09.875Z,59718.56
2023-03-15T06:36:38.806Z,59718.31
2023-03-15T06:39:07.224Z,59721.41
2023-03-15T06:41:35.649Z,59732.03
2023-03-15T06:44:04.154Z,59712.41
2023-03-15T06:46:34.451Z,59705.09
2023-03-15T06:49:03.377Z,59711.53
2023-03-15T06:51:31.903Z,59708.31
2023-03-15T06:54:00.348Z,59716.41
2023-03-15T06:56:28.987Z,59727.72
2023-03-15T06:58:57.360Z,59728.94
2023-03-15T07:01:25.813Z,59735.41
2023-03-15T07:03:55.836Z,59734.31
2023-03-15T07:06:24.251Z,59748.72
2023-03-15T07:08:52.668Z,59742.56
2023-03-15T07:11:22.272Z,59746.34
2023-03-15T07:13:50.684Z,59746.88
2023-03-15T07:16:19.206Z,59755.34
2023-03-15T07:18:47.790Z,59773.53
2023-03-15T07:21:17.947Z,59772.59
2023-03-15T07:23:46.356Z,59778.69
2023-03-15T07:26:14.802Z,59796.31
2023-03-15T07:28:44.721Z,59793.78
2023-03-15T07:31:13.647Z,59792.16
2023-03-15T07:33:42.350Z,59800.47
2023-03-15T07:36:10.858Z,59803.88
2023-03-15T07:38:43.204Z,59804.56
2023-03-15T07:41:11.905Z,59803.47
2023-03-15T07:43:40.420Z,59806.41
2023-03-15T07:46:08.951Z,59813.94
2023-03-15T07:48:37.557Z,59809.97
2023-03-15T07:51:06.857Z,59817.19
2023-03-15T07:53:35.320Z,59814.09
2023-03-15T07:56:05.596Z,59809.97
2023-03-15T07:58:34.059Z,59828.13
2023-03-15T08:01:02.492Z,59829.38
2023-03-15T08:03:31.561Z,59826.50
2023-03-15T08:06:00.012Z,59834.75
2023-03-15T08:08:28.844Z,59836.91
2023-03-15T08:10:57.318Z,59855.78
2023-03-15T08:13:27.137Z,59866.44
2023-03-15T08:15:55.637Z,59863.19
2023-03-15T08:18:24.164Z,59860.66
2023-03-15T08:20:52.659Z,59860.13
2023-03-15T08:23:21.893Z,59858.50
2023-03-15T08:25:50.788Z,59850.94
2023-03-15T08:28:19.299Z,59850.63
2023-03-15T08:30:49.059Z,59863.97
2023-03-15T08:33:17.631Z,59858.19
2023-03-15T08:35:46.085Z,59853.84
2023-03-15T08:38:14.522Z,59851.16
2023-03-15T08:40:43.093Z,59838.38
2023-03-15T08:43:11.547Z,59849.56
2023-03-15T08:45:56.578Z,59853.09
2023-03-15T08:48:27.269Z,59852.03
2023-03-15T08:50:55.723Z,59860.88
2023-03-15T08:53:24.167Z,59862.09
2023-03-15T08:55:52.647Z,59873.28
2023-03-15T08:58:21.243Z,59878.31
2023-03-15T09:00:50.273Z,59881.91
2023-03-15T09:03:19.256Z,59886.25
2023-03-15T09:05:49.624Z,59889.47
2023-03-15T09:08:21.158Z,59891.09
2023-03-15T09:10:49.630Z,59885.16
2023-03-15T09:13:18.049Z,59898.81
2023-03-15T09:15:46.465Z,59902.75
2023-03-15T09:18:14.901Z,59907.06
2023-03-15T09:20:43.290Z,59918.22
2023-03-15T09:23:13.155Z,59927.81
2023-03-15T09:25:42.365Z,59922.56
2023-03-15T09:28:12.201Z,59916.63
2023-03-15T09:30:42.168Z,59915.69
2023-03-15T09:33:14.633Z,59911.69
2023-03-15T09:35:43.324Z,59916.78
2023-03-15T09:38:13.214Z,59918.22
2023-03-15T09:40:45.102Z,59909.22
2023-03-15T09:43:49.930Z,59913.22
2023-03-15T09:46:28.173Z,59900.03
2023-03-15T09:49:02.500Z,59909.06
2023-03-15T09:51:39.335Z,59903.50
2023-03-15T09:54:13.996Z,59902.44
2023-03-15T09:56:48.393Z,59900.97
2023-03-15T09:59:22.690Z,59908.91
2023-03-15T10:01:55.221Z,59907.06
2023-03-15T10:04:28.769Z,59910.69
2023-03-15T10:06:59.243Z,59925.41
2023-03-15T10:09:33.160Z,59920.00
2023-03-15T10:12:06.190Z,59940.38
2023-03-15T10:14:51.996Z,59934.59
2023-03-15T10:17:25.718Z,59946.31
2023-03-15T10:20:01.354Z,59951.88
2023-03-15T10:22:37.960Z,59944.84
2023-03-15T10:25:16.026Z,59956.97
2023-03-15T10:27:49.712Z,59960.50
2023-03-15T10:30:21.488Z,59966.06
2023-03-15T10:32:55.135Z,59975.09
2023-03-15T10:35:23.621Z,59978.31
2023-03-15T10:37:52.072Z,60008.59
2023-03-15T10:40:43.168Z,60062.47
2023-03-15T10:43:19.582Z,60087.34
2023-03-15T10:45:58.952Z,60092.91
2023-03-15T10:48:27.644Z,60125.34
2023-03-15T10:50:57.573Z,60105.34
2023-03-15T10:53:27.529Z,60099.25
2023-03-15T10:56:07.314Z,60095.06
2023-03-15T10:58:43.462Z,60066.97
2023-03-15T11:01:23.434Z,60061.53
2023-03-15T11:04:03.733Z,60050.06
2023-03-15T11:06:41.517Z,60040.72
2023-03-15T11:09:12.916Z,60051.81
2023-03-15T11:11:53.765Z,60069.66
2023-03-15T11:14:22.278Z,60066.97
2023-03-15T11:16:52.905Z,60051.81
2023-03-15T11:19:24.465Z,60098.56
2023-03-15T11:21:53.095Z,60134.56
2023-03-15T11:24:28.004Z,60158.22
2023-03-15T11:27:01.808Z,60221.16
2023-03-15T11:29:32.678Z,60221.84
2023-03-15T11:32:03.687Z,60220.59
2023-03-15T11:34:43.215Z,60261.78
2023-03-15T11:37:20.267Z,60247.84
2023-03-15T11:40:04.996Z,60280.59
2023-03-15T11:42:45.082Z,60255.28
2023-03-15T11:45:19.145Z,60250.16
2023-03-15T11:47:54.244Z,60319.06
2023-03-15T11:50:22.845Z,60348.50
2023-03-15T11:52:53.116Z,60298.78
2023-03-15T11:55:25.384Z,60280.22
2023-03-15T11:57:57.919Z,60278.56
2023-03-15T12:00:52.708Z,60290.09
2023-03-15T12:03:35.359Z,60274.25
2023-03-15T12:06:12.901Z,60291.03
2023-03-15T12:08:48.467Z,60281.84
2023-03-15T12:11:38.873Z,60229.13
2023-03-15T12:14:22.732Z,60201.13
2023-03-15T12:16:52.568Z,60195.72
2023-03-15T12:19:25.599Z,60209.91
2023-03-15T12:21:57.177Z,60274.38
2023-03-15T12:24:28.489Z,60275.16
2023-03-15T12:27:04.055Z,60309.88
2023-03-15T12:29:35.414Z,60353.91
2023-03-15T12:32:13.969Z,60394.56
2023-03-15T12:34:48.930Z,60407.97
2023-03-15T12:37:21.787Z,60412.16
2023-03-15T12:39:52.811Z,60395.13
2023-03-15T12:43:10.529Z,60355.25
2023-03-15T12:45:45.531Z,60291.34
2023-03-15T12:48:26.302Z,60264.25
2023-03-15T12:51:00.257Z,60241.97
2023-03-15T12:53:49.005Z,60248.25
2023-03-15T12:56:42.007Z,60309.59
2023-03-15T12:59:23.486Z,60279.13
2023-03-15T13:01:52.567Z,60284.53
2023-03-15T13:04:23.292Z,60275.72
2023-03-15T13:07:24.838Z,60339.81
2023-03-15T13:10:14.280Z,60398.91
2023-03-15T13:12:49.136Z,60325.47
2023-03-15T13:15:22.642Z,60304.03
2023-03-15T13:17:52.917Z,60327.09
2023-03-15T13:20:39.440Z,60405.56
2023-03-15T13:23:16.242Z,60437.13
2023-03-15T13:25:55.748Z,60437.81
2023-03-15T13:28:26.320Z,60490.31
2023-03-15T13:30:56.291Z,60461.44
2023-03-15T13:33:27.910Z,60450.97
2023-03-15T13:36:01.342Z,60413.94
2023-03-15T13:38:32.479Z,60400.53
2023-03-15T13:41:03.681Z,60376.69
2023-03-15T13:43:34.752Z,60323.25
2023-03-15T13:46:03.726Z,60293.19
2023-03-15T13:48:34.830Z,60276.16
2023-03-15T13:51:08.513Z,60281.28
2023-03-15T13:53:49.473Z,60274.50
2023-03-15T13:56:20.978Z,60239.03
2023-03-15T13:58:52.019Z,60206.53
2023-03-15T14:01:23.138Z,60141.06
2023-03-15T14:03:57.727Z,60123.19
2023-03-15T14:06:28.958Z,60111.00
2023-03-15T14:09:03.837Z,60138.34
2023-03-15T14:11:38.282Z,60166.88
2023-03-15T14:14:24.439Z,60191.38
2023-03-15T14:17:04.907Z,60211.94
2023-03-15T14:19:35.429Z,60234.00
2023-03-15T14:22:15.506Z,60255.13
2023-03-15T14:24:45.747Z,60279.91
2023-03-15T14:27:19.179Z,60306.19
2023-03-15T14:29:50.564Z,60326.25
2023-03-15T14:32:28.939Z,60360.41
2023-03-15T14:35:03.484Z,60391.16
2023-03-15T14:37:38.925Z,60368.69
2023-03-15T14:40:15.320Z,60407.59
2023-03-15T14:42:44.216Z,60397.69
2023-03-15T14:45:13.525Z,60409.91
2023-03-15T14:47:55.930Z,60420.75
2023-03-15T14:50:26.965Z,60441.75
2023-03-15T14:52:59.617Z,60444.38
2023-03-15T14:55:33.476Z,60433.47
2023-03-15T14:58:02.675Z,60488.59
2023-03-15T15:00:31.180Z,60507.59
2023-03-15T15:03:00.169Z,60471.06
2023-03-15T15:05:36.430Z,60452.22
2023-03-15T15:08:10.610Z,60447.75
2023-03-15T15:10:40.060Z,60432.69
2023-03-15T15:13:08.750Z,60391.47
2023-03-15T15:15:53.815Z,60360.97
2023-03-15T15:18:24.131Z,60344.16
2023-03-15T15:20:55.510Z,60343.47
2023-03-15T15:23:28.108Z,60358.25
2023-03-15T15:25:59.104Z,60334.00
2023-03-15T15:28:36.096Z,60310.53
2023-03-15T15:31:06.881Z,60290.34
2023-03-15T15:33:35.743Z,60274.78
2023-03-15T15:36:04.442Z,60273.31
2023-03-15T15:38:39.061Z,60274.09
2023-03-15T15:41:13.973Z,60250.00
2023-03-15T15:43:43.147Z,60251.88
2023-03-15T15:46:13.222Z,60241.72
2023-03-15T15:48:42.022Z,60230.25
2023-03-15T15:51:19.505Z,60240.13
2023-03-15T15:53:49.449Z,60233.63
2023-03-15T15:56:18.416Z,60224.78
2023-03-15T15:58:47.630Z,60222.38
2023-03-15T16:01:17.633Z,60223.16
2023-03-15T16:03:46.415Z,60217.75
2023-03-15T16:06:18.996Z,60217.91
2023-03-15T16:08:50.772Z,60221.94
2023-03-15T16:11:19.777Z,60213.72
2023-03-15T16:13:52.474Z,60207.06
2023-03-15T16:16:21.370Z,60191.78
2023-03-15T16:18:49.960Z,60102.94
2023-03-15T16:21:24.477Z,60012.91
2023-03-15T16:23:59.423Z,59978.72
2023-03-15T16:26:28.432Z,59936.06
2023-03-15T16:28:56.876Z,59918.63
2023-03-15T16:31:25.368Z,59920.78
2023-03-15T16:33:53.789Z,59912.84
2023-03-15T16:36:24.471Z,59915.53
2023-03-15T16:38:56.150Z,59912.69
2023-03-15T16:41:24.591Z,59909.47
2023-03-15T16:43:52.974Z,59894.94
2023-03-15T16:46:21.443Z,59905.69
2023-03-15T16:48:50.151Z,59898.97
2023-03-15T16:51:18.956Z,59901.66
2023-03-15T16:53:47.419Z,59906.22
2023-03-15T16:56:17.254Z,59910.69
2023-03-15T16:58:46.507Z,59922.16
2023-03-15T17:01:15.160Z,59924.72
2023-03-15T17:03:43.573Z,59924.88
2023-03-15T17:06:20.159Z,59928.88
2023-03-15T17:08:48.872Z,59946.16
2023-03-15T17:11:19.503Z,59944.94
2023-03-15T17:13:48.097Z,59931.06
2023-03-15T17:16:17.035Z,59938.22
2023-03-15T17:18:47.697Z,59937.28
2023-03-15T17:21:19.317Z,59943.41
2023-03-15T17:23:48.702Z,59941.06
2023-03-15T17:26:20.151Z,59938.38
2023-03-15T17:28:49.314Z,59944.84
2023-03-15T17:31:24.991Z,59942.00
2023-03-15T17:33:54.302Z,59934.59
2023-03-15T17:36:25.309Z,59944.84
2023-03-15T17:38:54.898Z,59956.44
2023-03-15T17:41:28.698Z,59942.69
2023-03-15T17:43:57.876Z,59949.16
2023-03-15T17:46:30.262Z,59956.03
2023-03-15T17:48:59.618Z,59951.88
2023-03-15T17:51:30.234Z,59952.41
2023-03-15T17:54:00.301Z,59951.03
2023-03-15T17:56:31.598Z,59937.84
2023-03-15T17:59:00.073Z,59950.25
2023-03-15T18:01:29.578Z,59956.03
2023-03-15T18:03:59.521Z,59963.44
2023-03-15T18:06:27.923Z,59956.03
2023-03-15T18:08:56.316Z,59948.09
2023-03-15T18:11:27.764Z,59942.69
2023-03-15T18:13:57.547Z,59942.44
2023-03-15T18:16:26.561Z,59939.44
2023-03-15T18:18:55.014Z,59942.69
2023-03-15T18:21:26.498Z,59950.63
2023-03-15T18:23:55.264Z,59960.44
2023-03-15T18:26:23.849Z,59944.31
2023-03-15T18:28:52.364Z,59946.31
2023-03-15T18:31:24.774Z,59951.03
2023-03-15T18:33:54.500Z,59944.84
2023-03-15T18:36:23.353Z,59946.72
2023-03-15T18:38:52.594Z,59940.91
2023-03-15T18:41:22.829Z,59934.22
2023-03-15T18:43:52.105Z,59928.13
2023-03-15T18:46:24.344Z,59935.50
2023-03-15T18:48:54.419Z,59933.34
2023-03-15T18:51:26.425Z,59922.72
2023-03-15T18:53:56.000Z,59920.00
2023-03-15T18:56:25.907Z,59925.09
2023-03-15T18:58:55.562Z,59923.47
2023-03-15T19:01:25.457Z,59920.56
2023-03-15T19:03:54.967Z,59918.63
2023-03-15T19:06:23.998Z,59921.47
2023-03-15T19:08:54.162Z,59910.28
2023-03-15T19:11:24.412Z,59903.81
2023-03-15T19:13:52.835Z,59909.97
2023-03-15T19:16:22.272Z,59904.91
2023-03-15T19:18:53.071Z,59896.28
2023-03-15T19:21:21.739Z,59887.31
2023-03-15T19:23:50.398Z,59885.47
2023-03-15T19:26:19.029Z,59884.94
2023-03-15T19:28:47.452Z,59886.03
2023-03-15T19:31:15.936Z,59887.31
2023-03-15T19:33:44.433Z,59884.41
2023-03-15T19:36:14.321Z,59885.72
2023-03-15T19:38:42.885Z,59890.00
2023-03-15T19:41:12.982Z,59885.16
2023-03-15T19:43:43.391Z,59879.38
2023-03-15T19:46:13.998Z,59886.78
2023-03-15T19:48:42.671Z,59885.56
2023-03-15T19:51:11.088Z,59875.44
2023-03-15T19:53:40.907Z,59874.69
2023-03-15T19:56:11.395Z,59877.63
2023-03-15T19:58:39.814Z,59866.44
2023-03-15T20:01:08.219Z,59863.72
2023-03-15T20:03:37.026Z,59868.59
2023-03-15T20:06:07.789Z,59860.28
2023-03-15T20:08:36.298Z,59861.03
2023-03-15T20:11:07.718Z,59863.97
2023-03-15T20:13:36.556Z,59861.28
2023-03-15T20:16:05.850Z,59859.41
2023-03-15T20:18:34.440Z,59855.03
2023-03-15T20:21:02.814Z,59856.34
2023-03-15T20:23:31.430Z,59856.19
2023-03-15T20:26:10.734Z,59861.03
2023-03-15T20:28:41.388Z,59868.44
2023-03-15T20:31:10.756Z,59858.88
2023-03-15T20:33:39.425Z,59862.50
2023-03-15T20:36:08.660Z,59855.25
2023-03-15T20:38:38.471Z,59856.34
2023-03-15T20:41:08.610Z,59854.97
2023-03-15T20:43:37.390Z,59852.41
2023-03-15T20:46:06.117Z,59845.56
2023-03-15T20:48:36.102Z,59849.00
2023-03-15T20:51:05.636Z,59843.78
2023-03-15T20:53:35.648Z,59839.44
2023-03-15T20:56:04.936Z,59844.16
2023-03-15T20:58:34.701Z,59841.22
2023-03-15T21:01:04.581Z,59847.38
2023-03-15T21:03:34.415Z,59847.94
2023-03-15T21:06:04.514Z,59835.69
2023-03-15T21:08:34.649Z,59826.13
2023-03-15T21:11:03.631Z,59828.97
2023-03-15T21:13:32.243Z,59829.75
2023-03-15T21:16:04.360Z,59838.22
2023-03-15T21:18:35.969Z,59835.53
2023-03-15T21:21:07.393Z,59827.75
2023-03-15T21:23:36.882Z,59821.81
2023-03-15T21:26:07.486Z,59822.91
2023-03-15T21:28:36.060Z,59822.34
2023-03-15T21:31:06.647Z,59808.34
2023-03-15T21:33:35.514Z,59811.41
2023-03-15T21:36:04.441Z,59812.13
2023-03-15T21:38:35.270Z,59810.72
2023-03-15T21:41:07.752Z,59815.03
2023-03-15T21:43:36.657Z,59809.97
2023-03-15T21:46:08.264Z,59806.00
2023-03-15T21:48:37.959Z,59795.94
2023-03-15T21:51:07.665Z,59798.09
2023-03-15T21:53:36.546Z,59802.78
2023-03-15T21:56:05.618Z,59799.94
2023-03-15T21:58:34.316Z,59792.16
2023-03-15T22:01:04.854Z,59802.63
2023-03-15T22:03:37.390Z,59794.00
2023-03-15T22:06:06.162Z,59795.38
2023-03-15T22:08:34.633Z,59780.47
2023-03-15T22:11:04.699Z,59774.00
2023-03-15T22:13:33.168Z,59785.69
2023-03-15T22:16:01.585Z,59777.97
2023-03-15T22:18:30.092Z,59779.59
2023-03-15T22:20:59.864Z,59785.69
2023-03-15T22:23:29.281Z,59786.63
2023-03-15T22:25:57.732Z,59779.06
2023-03-15T22:28:27.320Z,59772.75
2023-03-15T22:30:55.754Z,59773.28
2023-03-15T22:33:24.436Z,59777.44
2023-03-15T22:35:56.859Z,59778.75
2023-03-15T22:38:27.344Z,59772.75
2023-03-15T22:41:05.295Z,59773.84
2023-03-15T22:43:33.751Z,59772.97
2023-03-15T22:46:02.510Z,59771.75
2023-03-15T22:48:31.289Z,59765.22
2023-03-15T22:51:01.089Z,59781.22
2023-03-15T22:53:31.301Z,59774.75
2023-03-15T22:56:00.328Z,59775.28
2023-03-15T22:58:28.887Z,59768.59
2023-03-15T23:00:57.346Z,59766.13
2023-03-15T23:03:26.347Z,59761.44
2023-03-15T23:05:55.421Z,59770.50
2023-03-15T23:08:24.296Z,59769.88
2023-03-15T23:10:54.073Z,59766.91
2023-03-15T23:13:22.597Z,59770.97
2023-03-15T23:15:54.363Z,59770.44
2023-03-15T23:18:23.309Z,59776.38
2023-03-15T23:20:51.828Z,59768.44
2023-03-15T23:23:20.221Z,59765.75
2023-03-15T23:25:49.291Z,59764.38
2023-03-15T23:28:21.706Z,59754.97
2023-03-15T23:30:50.282Z,59755.72
2023-03-15T23:33:18.945Z,59751.41
2023-03-15T23:35:47.469Z,59746.03
2023-03-15T23:38:17.277Z,59745.66
2023-03-15T23:40:46.265Z,59742.56
2023-03-15T23:43:14.837Z,59752.81
2023-03-15T23:45:44.590Z,59757.88
2023-03-15T23:48:13.519Z,59747.41
2023-03-15T23:50:44.412Z,59746.03
2023-03-15T23:53:12.880Z,59750.88
2023-03-15T23:55:41.322Z,59742.03
2023-03-15T23:58:09.726Z,59743.13
